Time;durP1;ratioP1;P1;durP2;ratioP2;P2;SDS_P1;SDS_P2;PMS_P1;PMS_P2;Temp;Humidity;BMP_temperature;BMP_pressure;BME280_temperature;BME280_humidity;BME280_pressure;Samples;Min_cycle;Max_cycle;Signal;HPM_P1;HPM_P2
2021/12/29 00:00:29;;;;;;;96.97;36.97;;;;;;;3.32;96.06;93998.88;5011780;28;20679;-72
2021/12/29 00:02:58;;;;;;;77.45;34.53;;;;;;;3.34;94.94;94002.03;5012491;28;20264;-71
2021/12/29 00:05:26;;;;;;;48.75;25.63;;;;;;;3.16;94.31;93994.91;5012412;28;20220;-71
2021/12/29 00:07:53;;;;;;;55.38;25.55;;;;;;;3.13;95.16;94003.53;5011732;28;20197;-71
2021/12/29 00:10:21;;;;;;;49.75;23.58;;;;;;;3.25;95.32;93998.50;5012062;28;20201;-71
2021/12/29 00:12:51;;;;;;;52.70;26.13;;;;;;;3.44;94.07;93990.34;5012208;28;20205;-71
2021/12/29 00:15:20;;;;;;;49.70;22.20;;;;;;;3.43;93.59;93989.53;5012155;28;20232;-72
2021/12/29 00:17:48;;;;;;;50.33;24.33;;;;;;;3.38;93.94;93989.66;5011885;28;20680;-72
2021/12/29 00:20:18;;;;;;;59.15;26.90;;;;;;;3.45;94.42;93992.72;5011767;28;20228;-72
2021/12/29 00:22:45;;;;;;;52.10;24.05;;;;;;;3.65;94.39;93990.72;5011665;28;20201;-71
2021/12/29 00:25:13;;;;;;;53.58;24.58;;;;;;;3.72;93.60;93977.72;5011465;28;20200;-71
2021/12/29 00:27:41;;;;;;;49.00;22.80;;;;;;;3.67;93.20;93973.28;5012045;28;20201;-72
2021/12/29 00:30:12;;;;;;;39.88;20.17;;;;;;;3.86;93.43;93965.09;5011603;28;20205;-71
2021/12/29 00:32:39;;;;;;;24.67;13.32;;;;;;;4.13;93.23;93969.56;5011535;28;20193;-71
2021/12/29 00:35:12;;;;;;;12.70;6.90;;;;;;;4.44;93.00;93961.59;5011855;28;20233;-71
2021/12/29 00:37:39;;;;;;;23.27;9.40;;;;;;;4.70;92.66;93967.94;5011254;28;20217;-70
2021/12/29 00:40:07;;;;;;;26.30;11.98;;;;;;;4.86;92.05;93966.44;5011267;28;20488;-70
2021/12/29 00:42:34;;;;;;;17.13;7.80;;;;;;;4.96;92.46;93952.75;5011257;28;20237;-71
2021/12/29 00:45:01;;;;;;;24.20;12.20;;;;;;;5.11;92.13;93966.88;5011825;28;20205;-71
2021/12/29 00:47:30;;;;;;;23.85;11.30;;;;;;;5.11;92.43;93969.56;5011302;28;20221;-71
2021/12/29 00:49:58;;;;;;;30.92;12.98;;;;;;;5.19;92.32;93974.97;5011531;28;20201;-71
2021/12/29 00:52:27;;;;;;;26.60;13.18;;;;;;;5.27;92.04;93968.84;5011191;28;20244;-72
2021/12/29 00:54:54;;;;;;;32.92;14.40;;;;;;;5.29;91.92;93974.69;5010905;28;20588;-71
2021/12/29 00:57:21;;;;;;;28.02;13.30;;;;;;;5.35;91.80;93983.38;5011073;28;20205;-72
2021/12/29 00:59:48;;;;;;;30.00;12.20;;;;;;;5.33;91.72;93982.91;5011238;28;20233;-71
2021/12/29 01:02:15;;;;;;;29.38;15.07;;;;;;;5.24;91.66;93966.78;5011206;28;20201;-72
2021/12/29 01:04:42;;;;;;;28.95;13.00;;;;;;;5.24;92.14;93966.78;5011121;28;20212;-72
2021/12/29 01:07:09;;;;;;;35.15;15.52;;;;;;;5.36;92.03;93966.19;5011136;28;20205;-72
2021/12/29 01:09:37;;;;;;;27.88;12.43;;;;;;;5.51;91.67;93965.75;5010987;28;20458;-72
2021/12/29 01:12:05;;;;;;;27.92;13.50;;;;;;;5.53;91.37;93962.75;5010506;28;20657;-73
2021/12/29 01:14:32;;;;;;;28.48;12.43;;;;;;;5.54;91.40;93965.13;5010908;28;20197;-71
2021/12/29 01:16:59;;;;;;;29.27;13.43;;;;;;;5.59;91.00;93962.31;5010848;28;20205;-72
2021/12/29 01:19:29;;;;;;;27.17;12.15;;;;;;;5.61;91.11;93962.78;5011136;28;20521;-72
2021/12/29 01:21:59;;;;;;;28.08;13.52;;;;;;;5.63;90.74;93963.25;5011154;28;20220;-72
2021/12/29 01:24:28;;;;;;;29.00;13.38;;;;;;;5.57;90.64;93956.47;5010690;28;20201;-71
2021/12/29 01:26:57;;;;;;;27.95;13.40;;;;;;;5.59;90.62;93946.19;5010039;28;20205;-72
2021/12/29 01:29:26;;;;;;;25.30;11.25;;;;;;;5.58;90.65;93933.88;5010474;28;20209;-72
2021/12/29 01:31:53;;;;;;;28.33;12.85;;;;;;;5.64;90.84;93931.81;5010533;28;20446;-71
2021/12/29 01:34:20;;;;;;;29.27;12.93;;;;;;;5.64;90.91;93937.19;5010352;28;20213;-72
2021/12/29 01:36:47;;;;;;;26.10;11.73;;;;;;;5.62;91.15;93929.44;5009734;28;20600;-72
2021/12/29 01:39:15;;;;;;;24.50;11.25;;;;;;;5.65;91.25;93936.88;5010082;28;20205;-72
2021/12/29 01:41:43;;;;;;;26.02;12.65;;;;;;;5.70;90.91;93920.63;5009664;28;20279;-71
2021/12/29 01:44:13;;;;;;;27.92;12.27;;;;;;;5.73;90.44;93921.88;5010063;28;20204;-71
2021/12/29 01:46:41;;;;;;;32.80;14.13;;;;;;;5.71;90.46;93927.56;5010815;28;20197;-71
2021/12/29 01:49:09;;;;;;;27.85;13.93;;;;;;;5.70;90.61;93935.94;5009130;28;20212;-72
2021/12/29 01:51:36;;;;;;;25.58;12.77;;;;;;;5.53;90.78;93923.25;5010304;28;20225;-71
2021/12/29 01:54:15;;;;;;;22.50;10.98;;;;;;;5.50;90.91;93921.19;5010081;28;20209;-71
2021/12/29 01:56:45;;;;;;;29.90;12.48;;;;;;;5.48;91.13;93912.66;5010090;28;20217;-71
2021/12/29 01:59:14;;;;;;;28.40;12.52;;;;;;;5.51;91.02;93906.66;5009874;28;20212;-71
2021/12/29 02:01:42;;;;;;;52.75;22.98;;;;;;;5.66;90.69;93897.38;5010281;28;20615;-71
2021/12/29 02:04:09;;;;;;;27.00;13.40;;;;;;;5.70;90.56;93888.38;5009797;28;20208;-71
2021/12/29 02:06:36;;;;;;;28.75;13.38;;;;;;;5.72;90.42;93891.53;5010102;28;20205;-72
2021/12/29 02:09:04;;;;;;;26.13;11.60;;;;;;;5.82;90.31;93886.94;5009065;28;20665;-71
2021/12/29 02:11:32;;;;;;;32.13;14.18;;;;;;;5.72;90.71;93886.16;5009735;28;20197;-71
2021/12/29 02:13:59;;;;;;;25.70;13.50;;;;;;;5.72;90.76;93885.38;5009454;28;20263;-71
2021/12/29 02:16:29;;;;;;;33.00;15.98;;;;;;;5.71;90.87;93868.47;5009914;28;20252;-71
2021/12/29 02:18:57;;;;;;;24.05;12.15;;;;;;;5.75;91.00;93870.50;5009773;28;20294;-71
2021/12/29 02:21:27;;;;;;;24.50;8.35;;;;;;;5.80;90.78;93859.59;5009428;28;20232;-71
2021/12/29 02:24:16;;;;;;;21.02;9.10;;;;;;;5.76;90.87;93855.97;5008893;28;20644;-71
2021/12/29 02:26:44;;;;;;;27.52;12.38;;;;;;;5.75;90.62;93840.94;5008883;28;20193;-72
2021/12/29 02:29:13;;;;;;;24.10;12.07;;;;;;;5.80;90.53;93844.28;5009744;28;20189;-71
2021/12/29 02:31:42;;;;;;;26.70;12.68;;;;;;;5.79;90.68;93842.69;5009513;28;20663;-71
2021/12/29 02:34:12;;;;;;;24.00;10.43;;;;;;;5.78;90.59;93832.25;5009944;28;20208;-71
2021/12/29 02:36:43;;;;;;;28.98;12.63;;;;;;;5.90;90.46;93843.19;5008705;28;20233;-72
2021/12/29 02:39:13;;;;;;;26.27;12.15;;;;;;;5.81;90.49;93826.25;5008809;28;20559;-72
2021/12/29 02:41:44;;;;;;;25.42;11.32;;;;;;;5.91;90.15;93839.38;5009788;28;20228;-72
2021/12/29 02:44:16;;;;;;;28.40;13.57;;;;;;;5.89;90.12;93838.91;5010441;28;20644;-72
2021/12/29 02:46:44;;;;;;;26.20;11.60;;;;;;;5.77;90.68;93839.53;5011107;28;20185;-73
2021/12/29 02:49:11;;;;;;;17.10;8.25;;;;;;;5.71;90.94;93846.97;5010329;28;20235;-73
2021/12/29 02:51:39;;;;;;;25.77;12.13;;;;;;;5.58;91.12;93836.38;5010751;28;20232;-72
2021/12/29 02:54:07;;;;;;;26.42;13.07;;;;;;;5.51;91.37;93852.94;5009434;28;20730;-72
2021/12/29 02:56:34;;;;;;;24.83;10.60;;;;;;;5.53;90.95;93845.38;5009158;28;20233;-73
2021/12/29 02:59:01;;;;;;;25.35;11.82;;;;;;;5.30;90.38;93842.03;5009555;28;20201;-72
2021/12/29 03:01:29;;;;;;;21.17;11.75;;;;;;;5.14;90.29;93848.94;5013314;28;20201;-72
2021/12/29 03:03:56;;;;;;;31.33;13.98;;;;;;;5.01;90.65;93860.59;5013209;28;20210;-72
2021/12/29 03:06:23;;;;;;;31.15;14.38;;;;;;;4.98;90.73;93845.91;5013688;28;20287;-72
2021/12/29 03:08:51;;;;;;;27.15;15.52;;;;;;;5.08;90.69;93844.03;5013204;28;20209;-72
2021/12/29 03:11:19;;;;;;;30.58;14.10;;;;;;;5.11;90.79;93844.19;5013023;28;20228;-72
2021/12/29 03:13:46;;;;;;;35.67;16.90;;;;;;;5.07;90.75;93843.22;5013380;28;20683;-72
2021/12/29 03:16:13;;;;;;;41.70;20.33;;;;;;;5.10;90.58;93842.59;5013107;28;20239;-73
2021/12/29 03:18:41;;;;;;;40.97;18.67;;;;;;;4.95;91.14;93841.16;5013037;28;20205;-72
2021/12/29 03:21:09;;;;;;;35.25;18.08;;;;;;;4.98;91.71;93839.75;5012753;28;20243;-72
2021/12/29 03:23:35;;;;;;;48.50;19.48;;;;;;;4.87;91.40;93844.59;5013144;28;20197;-72
2021/12/29 03:26:06;;;;;;;42.45;19.25;;;;;;;4.89;91.57;93844.31;5013166;28;20205;-72
2021/12/29 03:28:33;;;;;;;37.72;17.67;;;;;;;4.79;92.24;93842.66;5012778;28;20869;-72
2021/12/29 03:31:00;;;;;;;32.65;16.60;;;;;;;4.83;92.01;93832.91;5012911;28;20201;-72
2021/12/29 03:33:29;;;;;;;34.33;16.33;;;;;;;4.87;92.19;93833.88;5012737;28;20557;-72
2021/12/29 03:36:00;;;;;;;31.20;14.80;;;;;;;5.04;91.26;93838.50;5012923;28;20319;-72
2021/12/29 03:38:28;;;;;;;36.40;15.90;;;;;;;4.96;91.23;93832.00;5012656;28;20181;-72
2021/12/29 03:40:57;;;;;;;40.60;16.88;;;;;;;4.81;91.22;93835.09;5012286;28;20236;-72
2021/12/29 03:43:26;;;;;;;32.13;14.95;;;;;;;4.83;91.14;93832.91;5012560;28;20197;-72
2021/12/29 03:45:54;;;;;;;30.50;15.23;;;;;;;4.91;91.06;93834.06;5012050;28;20676;-71
2021/12/29 03:48:24;;;;;;;35.05;14.70;;;;;;;4.85;90.86;93836.06;5012410;28;20204;-71
2021/12/29 03:50:51;;;;;;;29.38;14.43;;;;;;;4.84;90.84;93831.81;5012248;28;20611;-71
2021/12/29 03:53:19;;;;;;;27.98;13.63;;;;;;;4.94;90.67;93826.16;5012468;28;20209;-72
2021/12/29 03:55:48;;;;;;;28.85;13.77;;;;;;;5.03;90.03;93830.75;5012511;28;20545;-72
2021/12/29 03:58:15;;;;;;;33.35;14.70;;;;;;;4.97;90.37;93822.84;5012476;28;20528;-71
2021/12/29 04:00:44;;;;;;;32.25;13.00;;;;;;;4.97;90.35;93811.31;5012060;28;20204;-72
2021/12/29 04:03:11;;;;;;;30.65;14.07;;;;;;;4.96;90.61;93817.78;5012414;28;20209;-72
2021/12/29 04:05:38;;;;;;;33.45;14.93;;;;;;;4.93;90.58;93816.50;5011991;28;20204;-72
2021/12/29 04:08:05;;;;;;;27.98;13.45;;;;;;;4.97;90.20;93822.84;5012357;28;20251;-72
2021/12/29 04:10:33;;;;;;;27.73;13.30;;;;;;;4.95;90.55;93818.88;5011005;28;20205;-72
2021/12/29 04:13:00;;;;;;;32.20;13.68;;;;;;;4.92;90.42;93804.19;5011643;28;20213;-72
2021/12/29 04:15:27;;;;;;;33.88;14.82;;;;;;;4.99;90.42;93812.59;5011741;28;20691;-72
2021/12/29 04:17:58;;;;;;;31.90;14.57;;;;;;;4.78;90.89;93819.66;5011800;28;20201;-72
2021/12/29 04:23:12;;;;;;;25.95;13.18;;;;;;;4.87;90.13;93812.41;5011821;28;20185;-71
2021/12/29 04:25:39;;;;;;;25.08;12.18;;;;;;;4.85;90.08;93808.44;5011768;28;20213;-71
2021/12/29 04:28:14;;;;;;;30.45;12.30;;;;;;;4.89;89.45;93810.22;5012041;28;20211;-71
2021/12/29 04:30:42;;;;;;;25.65;12.07;;;;;;;4.88;90.12;93800.56;5011807;28;20189;-71
2021/12/29 04:33:11;;;;;;;25.25;11.27;;;;;;;4.95;90.27;93811.63;5011767;28;20213;-71
2021/12/29 04:35:38;;;;;;;24.35;12.18;;;;;;;5.00;89.90;93798.06;5011123;28;20229;-71
2021/12/29 04:38:05;;;;;;;26.85;12.77;;;;;;;4.74;90.19;93818.69;5010886;28;20683;-72
2021/12/29 04:40:32;;;;;;;26.70;11.98;;;;;;;4.81;90.34;93810.97;5011521;28;20201;-72
2021/12/29 04:42:59;;;;;;;29.65;13.05;;;;;;;4.90;90.11;93817.16;5011517;28;20201;-71
2021/12/29 04:45:26;;;;;;;29.90;12.75;;;;;;;4.87;90.11;93822.34;5010990;28;20548;-71
2021/12/29 04:47:53;;;;;;;28.17;12.95;;;;;;;4.67;90.70;93822.91;5010970;28;20201;-71
2021/12/29 04:50:27;;;;;;;28.83;13.43;;;;;;;4.68;91.04;93824.47;5010368;28;20212;-71
2021/12/29 04:52:58;;;;;;;25.13;12.77;;;;;;;4.81;91.00;93828.94;5010680;28;20319;-71
2021/12/29 04:55:26;;;;;;;29.05;13.38;;;;;;;4.84;90.57;93833.69;5011036;28;20223;-71
2021/12/29 04:57:53;;;;;;;28.20;13.02;;;;;;;4.82;90.70;93831.31;5011145;28;20590;-71
2021/12/29 05:00:24;;;;;;;25.98;13.27;;;;;;;4.91;90.50;93834.84;5011131;28;20209;-72
2021/12/29 05:02:51;;;;;;;29.20;14.10;;;;;;;5.01;90.26;93825.69;5010813;28;20197;-72
2021/12/29 05:05:28;;;;;;;31.08;12.88;;;;;;;4.98;90.04;93835.16;5010548;28;20197;-71
2021/12/29 05:10:40;;;;;;;32.58;14.98;;;;;;;5.16;89.56;93832.53;5010847;28;20212;-71
2021/12/29 05:13:07;;;;;;;35.97;15.07;;;;;;;5.17;89.74;93826.84;5010873;28;20211;-72
2021/12/29 05:15:34;;;;;;;27.52;14.15;;;;;;;5.33;89.53;93824.47;5010016;28;20201;-72
2021/12/29 05:18:02;;;;;;;23.23;13.10;;;;;;;5.38;88.95;93835.09;5010046;28;20596;-72
2021/12/29 05:20:29;;;;;;;26.17;12.95;;;;;;;5.44;88.72;93835.72;5010630;28;20229;-72
2021/12/29 05:22:59;;;;;;;26.70;13.82;;;;;;;5.39;88.84;93833.97;5010669;28;20197;-72
2021/12/29 05:25:27;;;;;;;29.45;12.55;;;;;;;5.51;88.67;93839.50;5010452;28;20235;-72
2021/12/29 05:27:54;;;;;;;27.55;12.52;;;;;;;5.53;88.51;93834.63;5010790;28;20306;-72
2021/12/29 05:30:21;;;;;;;25.70;11.70;;;;;;;5.49;88.33;93839.03;5010450;28;20205;-72
2021/12/29 05:32:49;;;;;;;30.05;13.40;;;;;;;5.40;88.58;93832.88;5011148;28;20208;-71
2021/12/29 05:35:16;;;;;;;25.92;13.13;;;;;;;5.46;89.00;93842.38;5010549;28;20275;-72
2021/12/29 05:37:43;;;;;;;29.58;13.48;;;;;;;5.37;88.88;93844.25;5010345;28;20268;-72
2021/12/29 05:40:15;;;;;;;29.25;12.35;;;;;;;5.40;89.18;93835.56;5010290;28;20213;-72
2021/12/29 05:42:42;;;;;;;26.10;12.02;;;;;;;5.36;89.23;93835.41;5010234;28;20260;-72
2021/12/29 05:45:12;;;;;;;24.85;11.50;;;;;;;5.47;89.57;93841.25;5010122;28;20287;-72
2021/12/29 05:47:39;;;;;;;27.20;12.70;;;;;;;5.60;89.21;93837.63;5010179;28;20678;-72
2021/12/29 05:50:09;;;;;;;35.78;14.50;;;;;;;5.61;88.27;93839.19;5010118;28;20218;-72
2021/12/29 05:52:36;;;;;;;31.20;13.43;;;;;;;5.64;88.34;93838.56;5010010;28;20220;-72
2021/12/29 05:55:04;;;;;;;27.52;12.23;;;;;;;5.65;88.26;93842.84;5009996;28;20266;-72
2021/12/29 05:57:32;;;;;;;29.40;13.73;;;;;;;5.64;88.00;93838.56;5009870;28;20225;-72
2021/12/29 05:59:59;;;;;;;29.83;14.43;;;;;;;5.70;88.18;93834.63;5009996;28;20619;-72
2021/12/29 06:02:26;;;;;;;32.53;15.10;;;;;;;5.68;88.58;93836.84;5009765;28;20205;-72
2021/12/29 06:04:53;;;;;;;28.05;14.13;;;;;;;5.70;88.68;93848.06;5009835;28;20212;-72
2021/12/29 06:07:20;;;;;;;30.40;14.73;;;;;;;5.69;88.94;93845.69;5010245;28;20576;-72
2021/12/29 06:09:47;;;;;;;32.92;15.02;;;;;;;5.81;88.72;93845.06;5009985;28;20201;-72
2021/12/29 06:12:14;;;;;;;29.23;14.40;;;;;;;5.66;88.56;93841.75;5010060;28;20205;-72
2021/12/29 06:14:44;;;;;;;38.65;16.10;;;;;;;5.71;88.85;93844.28;5009860;28;20205;-72
2021/12/29 06:17:11;;;;;;;30.52;15.55;;;;;;;5.70;88.99;93829.25;5009504;28;20339;-72
2021/12/29 06:19:40;;;;;;;33.25;14.80;;;;;;;5.73;89.59;93843.97;5009558;28;20562;-72
2021/12/29 06:22:09;;;;;;;38.90;17.33;;;;;;;5.71;89.85;93844.28;5009400;28;20412;-72
2021/12/29 06:24:36;;;;;;;38.25;16.33;;;;;;;5.84;89.97;93850.59;5009757;28;20583;-72
2021/12/29 06:27:03;;;;;;;35.25;16.98;;;;;;;5.97;89.70;93848.88;5009722;28;20197;-72
2021/12/29 06:29:30;;;;;;;40.35;17.77;;;;;;;5.91;89.61;93850.94;5009583;28;20196;-72
2021/12/29 06:31:58;;;;;;;34.45;16.35;;;;;;;5.79;90.25;93847.28;5009378;28;20208;-73
2021/12/29 06:34:25;;;;;;;34.05;16.52;;;;;;;5.85;90.62;93848.72;5008615;28;20205;-72
2021/12/29 06:36:52;;;;;;;37.58;17.13;;;;;;;5.97;90.63;93854.25;5009192;28;20314;-72
2021/12/29 06:39:19;;;;;;;35.67;17.55;;;;;;;6.06;89.94;93858.50;5009541;28;20205;-72
2021/12/29 06:41:46;;;;;;;38.05;16.88;;;;;;;6.12;89.65;93861.84;5008965;28;20751;-72
2021/12/29 06:44:12;;;;;;;36.97;15.98;;;;;;;6.08;89.78;93855.50;5009118;28;20734;-73
2021/12/29 06:46:39;;;;;;;33.83;15.77;;;;;;;6.18;89.72;93860.56;5009482;28;20205;-72
2021/12/29 06:49:08;;;;;;;31.23;15.13;;;;;;;6.21;89.31;93861.81;5009033;28;20215;-72
2021/12/29 06:51:34;;;;;;;37.47;16.02;;;;;;;6.03;88.92;93858.34;5008893;28;20286;-72
2021/12/29 06:54:01;;;;;;;40.28;16.77;;;;;;;6.04;88.94;93854.56;5009351;28;20213;-72
2021/12/29 06:56:28;;;;;;;40.25;19.35;;;;;;;5.78;90.07;93859.91;5009042;28;20208;-72
2021/12/29 06:58:55;;;;;;;41.53;19.63;;;;;;;5.76;90.98;93859.44;5009060;28;20193;-72
2021/12/29 07:01:22;;;;;;;38.22;20.85;;;;;;;5.75;90.71;93867.81;5008926;28;20205;-73
2021/12/29 07:03:49;;;;;;;37.03;16.60;;;;;;;5.87;90.43;93859.94;5008297;28;20211;-73
2021/12/29 07:06:17;;;;;;;32.97;16.48;;;;;;;5.71;90.99;93865.78;5008592;28;20266;-72
2021/12/29 07:08:44;;;;;;;35.80;17.73;;;;;;;5.83;90.60;93870.50;5009487;28;20205;-72
2021/12/29 07:11:11;;;;;;;41.92;18.60;;;;;;;5.90;90.75;93875.44;5009322;28;20212;-73
2021/12/29 07:13:38;;;;;;;33.10;15.35;;;;;;;6.02;90.18;93878.28;5008954;28;20197;-72
2021/12/29 07:16:05;;;;;;;40.15;17.58;;;;;;;5.89;90.40;93884.59;5008778;28;20204;-72
2021/12/29 07:18:32;;;;;;;41.95;19.48;;;;;;;5.96;90.30;93887.63;5007998;28;20238;-72
2021/12/29 07:20:59;;;;;;;41.47;20.55;;;;;;;6.03;90.09;93885.22;5008196;28;20217;-72
2021/12/29 07:23:27;;;;;;;48.03;19.65;;;;;;;6.07;90.23;93883.50;5008361;28;20205;-72
2021/12/29 07:25:54;;;;;;;44.35;19.92;;;;;;;6.12;90.22;93882.56;5008692;28;20575;-72
2021/12/29 07:28:21;;;;;;;39.70;18.70;;;;;;;6.05;90.38;93883.03;5008903;28;20653;-72
2021/12/29 07:30:48;;;;;;;47.30;22.23;;;;;;;6.02;90.60;93886.34;5008604;28;20315;-73
2021/12/29 07:33:15;;;;;;;51.05;22.95;;;;;;;6.01;90.88;93884.78;5008346;28;20244;-72
2021/12/29 07:35:42;;;;;;;59.45;25.60;;;;;;;6.11;91.17;93884.44;5008758;28;20225;-73
2021/12/29 07:38:09;;;;;;;61.85;28.08;;;;;;;6.04;91.09;93882.22;5009378;28;20251;-73
2021/12/29 07:40:37;;;;;;;59.42;24.38;;;;;;;6.13;91.26;93884.94;5008888;28;20216;-74
2021/12/29 07:43:04;;;;;;;73.43;35.13;;;;;;;6.24;91.05;93894.25;5008118;28;20200;-74
2021/12/29 07:45:31;;;;;;;58.45;24.90;;;;;;;6.34;90.85;93891.22;5009602;28;20417;-73
2021/12/29 07:47:59;;;;;;;56.53;26.55;;;;;;;6.47;90.49;93888.66;5011976;28;20201;-72
2021/12/29 07:50:26;;;;;;;55.65;23.20;;;;;;;6.42;90.02;93887.72;5012201;28;20287;-72
2021/12/29 07:52:53;;;;;;;54.85;24.02;;;;;;;6.49;90.62;93887.25;5012168;28;20225;-72
2021/12/29 07:55:21;;;;;;;50.40;24.52;;;;;;;6.55;90.55;93882.50;5012009;28;20208;-73
2021/12/29 07:57:50;;;;;;;53.85;23.55;;;;;;;6.61;90.30;93889.28;5011517;28;20225;-73
2021/12/29 08:00:17;;;;;;;55.58;23.63;;;;;;;6.58;90.45;93892.59;5012102;28;20296;-73
2021/12/29 08:02:44;;;;;;;52.05;21.85;;;;;;;6.64;90.45;93888.63;5012237;28;20679;-73
2021/12/29 08:05:13;;;;;;;51.47;22.35;;;;;;;6.60;90.79;93893.84;5012052;28;20603;-73
2021/12/29 08:07:40;;;;;;;50.10;21.35;;;;;;;6.56;90.92;93892.16;5012073;28;20310;-72
2021/12/29 08:10:07;;;;;;;56.90;24.13;;;;;;;6.54;90.77;93891.69;5011867;28;20208;-73
2021/12/29 08:12:34;;;;;;;50.60;23.60;;;;;;;6.45;91.35;93890.88;5011886;28;20205;-72
2021/12/29 08:15:03;;;;;;;55.78;23.20;;;;;;;6.44;91.42;93884.72;5012122;28;20209;-73
2021/12/29 08:17:32;;;;;;;52.10;23.13;;;;;;;6.43;91.31;93886.59;5011987;28;20599;-73
2021/12/29 08:19:59;;;;;;;57.70;23.48;;;;;;;6.58;91.35;93881.84;5011466;28;20786;-72
2021/12/29 08:22:26;;;;;;;61.08;24.40;;;;;;;6.56;91.63;93886.78;5011370;28;20518;-72
2021/12/29 08:24:53;;;;;;;51.15;23.42;;;;;;;6.59;92.12;93891.47;5011329;28;20209;-73
2021/12/29 08:27:20;;;;;;;50.20;22.83;;;;;;;6.54;91.73;93888.97;5011485;28;20306;-74
2021/12/29 08:29:46;;;;;;;50.13;22.60;;;;;;;6.68;91.18;93884.19;5011791;28;20208;-72
2021/12/29 08:32:15;;;;;;;66.72;27.77;;;;;;;6.78;91.33;93878.47;5011542;28;20208;-72
2021/12/29 08:34:42;;;;;;;56.63;25.23;;;;;;;6.86;90.83;93883.00;5011340;28;20225;-73
2021/12/29 08:37:09;;;;;;;55.72;24.35;;;;;;;6.84;91.05;93882.53;5011618;28;20615;-74
2021/12/29 08:39:35;;;;;;;53.13;21.80;;;;;;;6.81;91.69;93883.22;5011791;28;20207;-73
2021/12/29 08:42:03;;;;;;;47.10;23.45;;;;;;;6.87;91.86;93881.91;5011291;28;20232;-72
2021/12/29 08:44:30;;;;;;;57.03;23.13;;;;;;;6.94;91.23;93882.22;5011813;28;20208;-73
2021/12/29 08:46:57;;;;;;;48.75;22.42;;;;;;;6.92;91.35;93881.75;5011362;28;20212;-73
2021/12/29 08:49:25;;;;;;;50.63;22.67;;;;;;;7.02;91.26;93875.19;5011547;28;20205;-73
2021/12/29 08:51:52;;;;;;;47.42;21.55;;;;;;;7.09;90.52;93884.38;5010702;28;20233;-72
2021/12/29 08:54:19;;;;;;;48.05;20.88;;;;;;;6.96;90.61;93880.00;5011116;28;20201;-73
2021/12/29 08:56:46;;;;;;;50.35;21.17;;;;;;;7.03;90.79;93880.25;5010281;28;20514;-73
2021/12/29 08:59:13;;;;;;;56.88;23.98;;;;;;;6.94;91.07;93876.81;5011281;28;20236;-73
2021/12/29 09:01:40;;;;;;;47.15;20.08;;;;;;;6.87;91.01;93876.53;5010962;28;20235;-73
2021/12/29 09:04:07;;;;;;;47.33;21.58;;;;;;;6.81;91.20;93872.44;5011196;28;20235;-73
2021/12/29 09:06:36;;;;;;;46.60;20.58;;;;;;;6.99;90.72;93867.75;5010853;28;20514;-72
2021/12/29 09:09:03;;;;;;;51.78;24.38;;;;;;;6.97;91.26;93870.78;5011079;28;20259;-72
2021/12/29 09:11:30;;;;;;;67.30;34.42;;;;;;;6.99;91.04;93868.56;5011332;28;20224;-73
2021/12/29 09:13:59;;;;;;;69.00;32.75;;;;;;;7.04;91.10;93863.00;5011121;28;20484;-73
2021/12/29 09:16:26;;;;;;;105.55;47.50;;;;;;;7.17;91.18;93860.41;5010856;28;20201;-73
2021/12/29 09:18:53;;;;;;;76.25;36.88;;;;;;;7.12;91.11;93859.47;5010970;28;20233;-74
2021/12/29 09:21:21;;;;;;;83.00;38.53;;;;;;;7.36;90.79;93847.31;5010551;28;20208;-74
2021/12/29 09:23:49;;;;;;;76.80;35.70;;;;;;;7.35;92.03;93843.84;5010298;28;20647;-74
2021/12/29 09:26:17;;;;;;;77.13;33.38;;;;;;;7.59;90.53;93843.19;5010833;28;20225;-73
2021/12/29 09:28:47;;;;;;;68.13;32.80;;;;;;;7.71;90.44;93840.56;5010521;28;20204;-74
2021/12/29 09:31:14;;;;;;;57.65;28.00;;;;;;;7.79;89.52;93837.00;5010768;28;20232;-74
2021/12/29 09:33:41;;;;;;;56.70;25.58;;;;;;;7.93;89.60;93825.16;5010406;28;20236;-74
2021/12/29 09:36:09;;;;;;;65.95;35.50;;;;;;;7.99;88.67;93818.47;5010273;28;20221;-75
2021/12/29 09:38:40;;;;;;;47.13;21.73;;;;;;;7.85;88.96;93819.53;5010603;28;20240;-74
2021/12/29 09:41:10;;;;;;;45.33;20.27;;;;;;;7.78;89.25;93816.59;5010453;28;20233;-75
2021/12/29 09:43:38;;;;;;;40.15;19.25;;;;;;;7.68;89.32;93819.66;5010208;28;20196;-75
2021/12/29 09:46:06;;;;;;;47.13;22.20;;;;;;;7.56;90.85;93816.09;5010040;28;20664;-75
2021/12/29 09:48:33;;;;;;;40.10;20.58;;;;;;;7.69;90.95;93815.06;5010457;28;20223;-75
2021/12/29 09:51:00;;;;;;;39.05;19.85;;;;;;;7.64;90.27;93807.97;5010013;28;20216;-75
2021/12/29 09:53:27;;;;;;;37.63;19.25;;;;;;;7.54;90.82;93819.13;5010023;28;20204;-75
2021/12/29 09:55:54;;;;;;;43.00;19.95;;;;;;;7.38;90.72;93810.06;5010385;28;20979;-75
2021/12/29 09:58:23;;;;;;;37.10;16.40;;;;;;;7.55;91.28;93812.63;5009505;28;20225;-75
2021/12/29 10:00:54;;;;;;;34.15;17.98;;;;;;;7.65;91.87;93798.78;5009750;28;20200;-75
2021/12/29 10:03:23;;;;;;;45.55;25.77;;;;;;;7.93;91.43;93800.91;5009877;28;20224;-74
2021/12/29 10:05:52;;;;;;;34.65;17.95;;;;;;;7.99;90.00;93796.88;5010268;28;20208;-77
2021/12/29 10:08:23;;;;;;;27.40;11.38;;;;;;;7.96;89.25;93797.53;5009216;28;20661;-76
2021/12/29 10:10:54;;;;;;;30.23;12.98;;;;;;;7.98;90.32;93789.91;5009422;28;20201;-76
2021/12/29 10:13:22;;;;;;;22.40;10.90;;;;;;;7.90;90.21;93782.69;5008826;28;20201;-76
2021/12/29 10:15:55;;;;;;;30.83;13.35;;;;;;;7.98;90.12;93784.53;5009351;28;20660;-76
2021/12/29 10:18:24;;;;;;;30.73;12.25;;;;;;;7.96;89.61;93776.75;5009635;28;20217;-75
2021/12/29 10:20:53;;;;;;;25.35;12.63;;;;;;;8.15;89.20;93778.97;5009612;28;20228;-75
2021/12/29 10:23:23;;;;;;;25.88;13.98;;;;;;;8.24;88.38;93768.88;5009358;28;20201;-75
2021/12/29 10:25:50;;;;;;;31.42;13.93;;;;;;;8.50;89.11;93772.09;5009540;28;20613;-75
2021/12/29 10:28:24;;;;;;;29.30;14.85;;;;;;;8.77;88.75;93777.97;5009020;28;20206;-75
2021/12/29 10:30:57;;;;;;;28.17;13.68;;;;;;;8.95;87.19;93773.94;5009496;28;20196;-74
2021/12/29 10:33:23;;;;;;;28.52;14.18;;;;;;;9.03;85.62;93764.13;5009622;28;20408;-75
2021/12/29 10:35:50;;;;;;;28.95;13.82;;;;;;;9.08;85.50;93762.00;5009192;28;20696;-74
2021/12/29 10:38:20;;;;;;;32.10;19.83;;;;;;;8.73;85.76;93760.88;5009552;28;20247;-75
2021/12/29 10:40:48;;;;;;;27.58;17.45;;;;;;;8.68;85.65;93764.59;5009596;28;20233;-74
2021/12/29 10:43:16;;;;;;;24.48;12.70;;;;;;;8.66;85.93;93757.94;5009745;28;20199;-75
2021/12/29 10:45:49;;;;;;;61.40;26.85;;;;;;;8.55;88.03;93761.09;5009766;28;20296;-75
2021/12/29 10:48:21;;;;;;;37.25;18.45;;;;;;;8.54;87.78;93754.13;5009327;28;20268;-75
2021/12/29 10:50:59;;;;;;;22.90;12.23;;;;;;;8.66;87.85;93756.03;5009492;28;20228;-75
2021/12/29 10:53:26;;;;;;;20.02;11.70;;;;;;;8.36;87.83;93752.72;5009053;28;20601;-76
2021/12/29 10:55:54;;;;;;;17.77;10.40;;;;;;;8.43;86.59;93768.38;5008831;28;20220;-74
2021/12/29 10:58:23;;;;;;;18.80;9.48;;;;;;;8.50;85.93;93750.50;5009278;28;20232;-74
2021/12/29 11:01:00;;;;;;;21.52;10.00;;;;;;;8.52;85.79;93755.56;5009088;28;20257;-74
2021/12/29 11:03:28;;;;;;;15.68;8.90;;;;;;;8.53;86.16;93752.53;5008961;28;20231;-74
2021/12/29 11:05:59;;;;;;;21.08;10.18;;;;;;;8.65;85.99;93754.47;5009039;28;20247;-74
2021/12/29 11:08:28;;;;;;;18.17;9.52;;;;;;;8.96;85.36;93736.91;5009309;28;20217;-74
2021/12/29 11:11:03;;;;;;;17.38;8.50;;;;;;;9.13;84.94;93740.16;5009681;28;20271;-73
2021/12/29 11:13:32;;;;;;;16.83;10.13;;;;;;;9.14;85.15;93733.63;5008876;28;20185;-74
2021/12/29 11:16:05;;;;;;;19.05;10.20;;;;;;;9.17;84.89;93732.16;5009123;28;20201;-73
2021/12/29 11:18:43;;;;;;;21.73;13.60;;;;;;;9.35;84.54;93732.69;5009115;28;20217;-74
2021/12/29 11:21:10;;;;;;;27.27;17.38;;;;;;;9.37;84.58;93719.63;5011584;28;20193;-74
2021/12/29 11:23:41;;;;;;;26.83;17.77;;;;;;;9.46;84.77;93718.34;5012691;28;20721;-75
2021/12/29 11:26:11;;;;;;;23.58;13.50;;;;;;;9.02;85.25;93725.53;5013164;28;20224;-75
2021/12/29 11:28:39;;;;;;;28.42;18.38;;;;;;;8.86;85.23;93713.88;5012536;28;20251;-75
2021/12/29 11:31:11;;;;;;;28.35;19.25;;;;;;;8.72;86.81;93722.31;5012317;28;20743;-75
2021/12/29 11:33:38;;;;;;;25.75;17.67;;;;;;;8.59;87.31;93719.94;5012641;28;20215;-74